sensor_id;sensor_type;location;lat;lon;timestamp;pressure;altitude;pressure_sealevel;temperature;humidity
38191;BME280;25191;47.510;19.124;2024-01-06T00:07:18;99410.69;;;20.93;52.34
38191;BME280;25191;47.510;19.124;2024-01-06T00:27:19;99396.13;;;20.89;51.74
38191;BME280;25191;47.510;19.124;2024-01-06T00:47:20;99380.63;;;20.86;51.88
38191;BME280;25191;47.510;19.124;2024-01-06T01:07:24;99366.22;;;20.81;52.47
38191;BME280;25191;47.510;19.124;2024-01-06T01:27:24;99346.28;;;20.78;52.51
38191;BME280;25191;47.510;19.124;2024-01-06T01:47:25;99355.47;;;20.74;52.46
38191;BME280;25191;47.510;19.124;2024-01-06T02:07:26;99331.63;;;20.75;52.23
38191;BME280;25191;47.510;19.124;2024-01-06T02:27:27;99312.50;;;20.73;52.30
38191;BME280;25191;47.510;19.124;2024-01-06T02:47:27;99297.81;;;20.71;52.19
38191;BME280;25191;47.510;19.124;2024-01-06T03:07:27;99279.56;;;20.69;52.74
38191;BME280;25191;47.510;19.124;2024-01-06T03:27:28;99246.31;;;20.68;52.47
38191;BME280;25191;47.510;19.124;2024-01-06T03:47:28;99259.63;;;20.67;52.88
38191;BME280;25191;47.510;19.124;2024-01-06T04:07:28;99287.16;;;20.62;52.13
38191;BME280;25191;47.510;19.124;2024-01-06T04:27:29;99277.91;;;20.58;52.92
38191;BME280;25191;47.510;19.124;2024-01-06T04:47:29;99285.81;;;20.58;52.57
38191;BME280;25191;47.510;19.124;2024-01-06T05:07:30;99273.63;;;20.57;52.81
38191;BME280;25191;47.510;19.124;2024-01-06T05:27:31;99250.72;;;21.15;50.90
38191;BME280;25191;47.510;19.124;2024-01-06T05:47:31;99272.53;;;21.35;50.37
38191;BME280;25191;47.510;19.124;2024-01-06T06:07:32;99288.97;;;21.47;50.89
38191;BME280;25191;47.510;19.124;2024-01-06T06:27:32;99285.50;;;21.47;51.13
38191;BME280;25191;47.510;19.124;2024-01-06T06:47:32;99274.19;;;21.54;50.60
38191;BME280;25191;47.510;19.124;2024-01-06T07:07:33;99280.59;;;21.52;50.71
38191;BME280;25191;47.510;19.124;2024-01-06T07:27:35;99266.13;;;21.66;50.96
38191;BME280;25191;47.510;19.124;2024-01-06T07:47:35;99262.09;;;21.43;51.46
38191;BME280;25191;47.510;19.124;2024-01-06T08:07:36;99273.38;;;21.82;52.19
38191;BME280;25191;47.510;19.124;2024-01-06T08:27:37;99297.03;;;21.91;53.07
38191;BME280;25191;47.510;19.124;2024-01-06T08:47:37;99296.03;;;21.74;53.08
38191;BME280;25191;47.510;19.124;2024-01-06T09:07:38;99290.16;;;21.25;49.22
38191;BME280;25191;47.510;19.124;2024-01-06T09:27:39;99264.84;;;21.70;50.84
38191;BME280;25191;47.510;19.124;2024-01-06T09:47:40;99251.84;;;21.68;52.02
38191;BME280;25191;47.510;19.124;2024-01-06T10:07:42;99265.22;;;21.57;51.97
38191;BME280;25191;47.510;19.124;2024-01-06T10:27:44;99266.34;;;21.72;55.48
38191;BME280;25191;47.510;19.124;2024-01-06T10:47:50;99227.88;;;21.62;57.57
38191;BME280;25191;47.510;19.124;2024-01-06T11:07:52;99204.75;;;18.54;50.57
38191;BME280;25191;47.510;19.124;2024-01-06T11:27:56;99157.50;;;21.36;49.44
38191;BME280;25191;47.510;19.124;2024-01-06T11:48:02;99116.41;;;21.43;51.62
38191;BME280;25191;47.510;19.124;2024-01-06T12:08:03;99119.94;;;21.52;51.57
38191;BME280;25191;47.510;19.124;2024-01-06T12:28:07;99084.72;;;21.53;51.57
38191;BME280;25191;47.510;19.124;2024-01-06T12:48:08;99079.50;;;21.17;51.03
38191;BME280;25191;47.510;19.124;2024-01-06T13:08:09;99111.59;;;21.74;50.64
38191;BME280;25191;47.510;19.124;2024-01-06T13:28:09;99111.53;;;21.66;51.05
38191;BME280;25191;47.510;19.124;2024-01-06T13:48:10;99094.06;;;21.65;51.60
38191;BME280;25191;47.510;19.124;2024-01-06T14:08:10;99086.38;;;21.72;50.81
38191;BME280;25191;47.510;19.124;2024-01-06T14:28:10;99091.22;;;21.40;48.59
38191;BME280;25191;47.510;19.124;2024-01-06T14:48:11;99091.16;;;21.14;48.00
38191;BME280;25191;47.510;19.124;2024-01-06T15:08:12;99103.84;;;21.37;48.61
38191;BME280;25191;47.510;19.124;2024-01-06T15:28:12;99075.50;;;21.67;50.66
38191;BME280;25191;47.510;19.124;2024-01-06T15:48:14;99068.47;;;21.75;51.46
38191;BME280;25191;47.510;19.124;2024-01-06T16:08:14;99055.66;;;21.81;51.35
38191;BME280;25191;47.510;19.124;2024-01-06T16:28:15;99047.91;;;21.79;51.64
38191;BME280;25191;47.510;19.124;2024-01-06T16:48:15;99044.59;;;22.12;54.12
38191;BME280;25191;47.510;19.124;2024-01-06T17:08:15;99034.31;;;22.35;55.29
38191;BME280;25191;47.510;19.124;2024-01-06T17:28:16;99046.13;;;22.57;56.01
38191;BME280;25191;47.510;19.124;2024-01-06T17:48:16;99054.88;;;22.58;55.42
38191;BME280;25191;47.510;19.124;2024-01-06T18:08:17;99042.28;;;22.43;56.21
38191;BME280;25191;47.510;19.124;2024-01-06T18:28:18;99029.38;;;22.32;55.32
38191;BME280;25191;47.510;19.124;2024-01-06T18:48:24;99036.38;;;22.15;54.16
38191;BME280;25191;47.510;19.124;2024-01-06T19:08:24;99008.03;;;22.09;54.09
38191;BME280;25191;47.510;19.124;2024-01-06T19:28:25;99004.03;;;21.96;54.51
38191;BME280;25191;47.510;19.124;2024-01-06T19:48:25;99002.81;;;21.90;54.02
38191;BME280;25191;47.510;19.124;2024-01-06T20:08:25;98994.88;;;21.56;50.69
38191;BME280;25191;47.510;19.124;2024-01-06T20:28:26;98978.13;;;21.57;54.26
38191;BME280;25191;47.510;19.124;2024-01-06T20:48:26;98969.59;;;21.63;55.86
38191;BME280;25191;47.510;19.124;2024-01-06T21:08:26;98966.53;;;21.50;55.62
38191;BME280;25191;47.510;19.124;2024-01-06T21:28:27;98942.06;;;20.87;54.69
38191;BME280;25191;47.510;19.124;2024-01-06T21:48:28;98943.34;;;21.27;55.00
38191;BME280;25191;47.510;19.124;2024-01-06T22:08:30;98925.06;;;21.25;56.03
38191;BME280;25191;47.510;19.124;2024-01-06T22:28:31;98924.22;;;21.25;56.08
38191;BME280;25191;47.510;19.124;2024-01-06T22:48:32;98915.81;;;21.21;56.54
38191;BME280;25191;47.510;19.124;2024-01-06T23:08:36;98913.00;;;21.15;56.70
38191;BME280;25191;47.510;19.124;2024-01-06T23:28:36;98917.78;;;21.19;56.44
38191;BME280;25191;47.510;19.124;2024-01-06T23:48:36;98914.66;;;21.16;56.43
